ヘリポート

2021/11/08

第42回九都県市合同防災訓練(令和3年度横浜市総合防災訓練) 横浜市 2021/11/7 sun

関東におすごとに来ていて、当初は行かないつもりが、ある悪だくみが出来ることが判って、急遽参戦することに。横浜市西区で行われる第42回九都県市合同防災訓練(令和3年度横浜市総合防災訓練)

RJTT 052100Z 34007KT 9999 FEW020 13/08 Q1021 NOSIG RMK 1CU020 A3015

20211107_yokohama_100g

朝早めの出発に幸運の四つ葉のクローバーから

20211107_yokohama_101jrf

目の前に懐かしい緑色のコンテナ、これも幸先良い。

20211107_yokohama_102g

都心をゆったり移動するには、二階建てグリーン車。

RJTT 052300Z 36011KT 9999 FEW020 15/09 Q1021 NOSIG RMK 1CU020 A3017

20211107_yokohama_103yokohamast

品川で乗換て、横浜駅とうちゃーく。

20211107_yokohama_104ampan

アンパンマンを横目に見ながら、会場まで前進。

20211107_yokohama_105taishinfutou

会場は、横浜港の耐震バース

20211107_yokohama_106taishinfutou

参加部隊は、ほとんど到着済み。

20211107_yokohama_107taishinfutou

みなとみらい橋から会場全体を見る

20211107_yokohama_108yt95

沖合には海自曳船 YT-95

20211107_yokohama_109yw24

水船 YW-24

20211107_yokohama_110tsurugi

神奈川県警 神3「つるぎ」

RJTT 060000Z 36012KT 9999 FEW030 16/09 Q1021 NOSIG RMK 1CU030 A3017

20211107_yokohama_111yokoshou

ゴムボートは、横浜市消防局と海自水中処分隊

20211107_yokohama_112fl01

海上保安庁消防艇 FL-01「ひりゆう」

20211107_yokohama_113kk

会場の最後の確認が行われてます。京急電車風の模擬列車

20211107_yokohama_114sr

横浜市消防局機動第2救助隊 特別高度救助部隊

スーパーレンジャーって言うのね、トントンかと思った。

20211107_yokohama_115yr

横浜消防局都築消防署仲町台特別救助隊

20211107_yokohama_116hp

バース内にみなとみらい場外があるけど、本日は使用しない。

20211107_yokohama_117pl31m2

災害対応型巡視船PL31「いず」搭載艇

20211107_yokohama_118ja06mc

SFJ75 RJTT-RJFR JA06MC A320-214

上空を羽田発の出発便が通過するが、気にぜずに

20211107_yokohama_119h084590

高官送迎機がやって来ました。到着は三管ヘリポート。時間まで待機の模様。

空の統制は、「よこしょうフライトサービス」

20211107_yokohama_120m8977

館山からお迎えに向かうUHとSHの海自編隊

20211107_yokohama_121jg41808

陸自さんもいらっしゃいました。

20211107_yokohama_122yokoshou

横浜市消防局救助艇「ゆめはま」

20211107_yokohama_123h084590

時間になり、棒付ロクマルさんからアプローチ

20211107_yokohama_124h084590

08-4590 UH-60J HYAKURI-ARS Bandou-B/F31

20211107_yokohama_125jg41808

続いて陸自のUH-1

20211107_yokohama_126jg41808

JG41808 UH-1J EH H808

20211107_yokohama_128jg41879

2機目のハンターさん

RJTT 060100Z 01011KT 9999 FEW030 16/09 Q1021 NOSIG RMK 1CU030 A3016

訓練 訓練 相模湾近海で地震発生

20211107_yokohama_129jg41879

JG41879 UH-1J EH H879

20211107_yokohama_130ja152y

上空からの情報収集活動

JA152Y AW139 横浜市消防局航空消防隊「はまちどり2」

20211107_yokohama_131h484580

2機目の空自ロクマルさん 棒なし

20211107_yokohama_132ja16kp

JA16KP BK117-C2 神奈川県警察「おおやま」

20211107_yokohama_133seabus

水上バスは、通常運航

20211107_yokohama_134h484580

49-4580 UH-60J HYAKURI-ARS Yashima-A/F33

20211107_yokohama_136yw24

水船がバースに近づいてきます。

20211107_yokohama_137ja71kt

JA71KT EC225LP 東京消防庁航空隊「こうのとり」

20211107_yokohama_138m8977

先刻通過していった海自ロクマル、SHは???

20211107_yokohama_139m8977

8977 UH-60J HS-21 Guardian77

20211107_yokohama_140ja692a

最後のヘリは、総理大臣

20211107_yokohama_141jg31i

陸自

20211107_yokohama_142ja692a

JA692A H225 JCG 「いぬわし」

20211107_yokohama_143yw24

救援物資輸送訓練 横須賀地方隊水船YW24 第31普通科連隊(武山)

20211107_yokohama_144jg01024

JG01024 EC225LP STH Puma1

RJTT 060130Z 01009KT 9999 FEW030 17/09 Q1021 NOSIG RMK 1CU030 A3016

20211107_yokohama_145pc22

PC22「はなぐも」

20211107_yokohama_146ja07kp

JA07KP 206L-4 神奈川県警察「かもめ」
こちらは、通常ミッション

20211107_yokohama_147yw24

水船がバースを離脱

20211107_yokohama_148jm

要救仕込み

20211107_yokohama_149ja152y

情報受伝達訓練 ヘリテレ中

20211107_yokohama_150cl129

水難者救出救助訓練(船舶)

20211107_yokohama_151cl129

PC129「やまゆり」横浜海上保安部

20211107_yokohama_152syounan

警備艇神1「しょうなん」 横浜水上警察署

20211107_yokohama_153syounan

救助の前に、航空救助用の要救仕込み

20211107_yokohama_154cl129

海保ダイバーは、「いず」潜水士

20211107_yokohama_155syounan

警察のダイバーは、第一機動隊スクーバ隊

20211107_yokohama_156syounan

2艘で競争してるみたい

20211107_yokohama_157ja16kp

上空は航空隊が状況偵察

20211107_yokohama_158ja16kp

JA16KP

20211107_yokohama_159cl129

ただいま救助中

20211107_yokohama_160ja692a

20211107_yokohama_161ja692a

JA692A

20211107_yokohama_162pc129

海保、警察離脱

20211107_yokohama_163ja152y

JA152Y 消防局も空からの救助に加わります。

20211107_yokohama_164hamasyou

まだまだ続く船舶による救助 横浜市消防局

20211107_yokohama_165hamasyou

20211107_yokohama_166ja16kp

水難者救出救助訓練(ヘリコプター)

20211107_yokohama_167ja16kp

トップバッターは、県警「おおやま」さん

20211107_yokohama_168ja16kp

20211107_yokohama_169ja16kp

20211107_yokohama_170ja16kp

20211107_yokohama_171ja16kp

20211107_yokohama_172ja16kp

離脱

20211107_yokohama_173ja152y

二番手は、横浜市消防局「はまちどり2」

20211107_yokohama_174ja152y

20211107_yokohama_175ja152y

20211107_yokohama_176ja152y

20211107_yokohama_177ja152y

離脱

RJTT 060200Z 03010KT 9999 FEW030 SCT/// 17/08 Q1020 NOSIG RMK 1CU030 A3014

20211107_yokohama_178ja692a

最後は、海上保安庁羽田航空基地「いぬわし」

20211107_yokohama_179ja692a

特殊救難隊降下

20211107_yokohama_180ja692a

20211107_yokohama_181ja692a

2名目降下

20211107_yokohama_182ja692a

陸上では、捜索・救出救助訓練が始まっています。偵察の後、各組織の指揮隊が展開して、現地調整所が設置されました。

###

 

20211107_yokohama_183ja692a

救難士を回収

20211107_yokohama_184ja692a

離脱

20211107_yokohama_185ja

空自の入間基地から災害救助犬が来ました。

20211107_yokohama_186jm

海上では、まだ要救助

20211107_yokohama_187jm

海自さん 自衛艦旗を掲げてやってくださいよ。

20211107_yokohama_188yr

SR YR が展開しています。

20211107_yokohama_189pl31m2

海保さん この高さを引き上げるのは、尋常じゃない。

20211107_yokohama_190pl31m2

海上での救助は、これにてお仕舞

20211107_yokohama_191yq

陸上では、救急隊も参集しています。

20211107_yokohama_192yq

移動薬局なのかな、横浜薬科大学のモバイルファーマシー

20211107_yokohama_193yq

仮救護所、トリアージポストの設置

20211107_yokohama_194sr

20211107_yokohama_195tfd

東京消防庁消防救助機動部隊ハイパーレスキュー到着

20211107_yokohama_196tfd

20211107_yokohama_197usn

米海軍から水槽付化学消防車

20211107_yokohama_198usn

20211107_yokohama_199tfd

20211107_yokohama_200kr

川崎市消防局特別高度救助隊

20211107_yokohama_201kr

神奈川県警察第一機動隊広域緊急援助隊

20211107_yokohama_202kr

カッターの準備中

20211107_yokohama_203kr

脱線した列車からの救助活動

20211107_yokohama_204yq

訓練は佳境ですが、小生の次の現場への時間となりました。

RJTT 060230Z 01007KT 340V060 9999 FEW030 17/08 Q1020 NOSIG RMK 1CU030 A3013

20211107_yokohama_205taishinfutou

要人輸送のヘリも見たいのですが、涙を呑んで転進します。

この後の訓練は、

火災防御訓練

閉会式

### 公式配信 ###

20211107_yokohama_299 

 

備忘録
《小生の推測した要人輸送》(調査中)

1.UH-60J 08-4590 航空幕僚長
2.UH-1J JG41808 東部方面総監
3.UH-1J JG41879 陸上幕僚長
4.UH-60J 48-4580 防衛大臣
5.EC-255LP JA71KT 総務大臣
6.UH-60J 8977 防災担当大臣
7.EC225LP JG01024 総理大臣

?.SH-60K 8430 ???

 

 

| | コメント (0)

2021/11/03

寄道 群馬ヘリポート 2021/11/3 wed

新型コロナも落ち着き始め、本日から高速の休日割引も再開に。一年ぶりにとある仕事に向かう道すがら、ちょっと寄り道してみました。

20211103_gunma_00ja9678

群馬ヘリポート

20211103_gunma_01ja9678

富山へもたまに来る9678さんが、エンジンウォッシュ中

20211103_gunma_02ja117r

前橋赤十字病院から飛び立った群馬県ドクターヘリ

20211103_gunma_03ja10gr

お山の方へ訓練に出かけていた、群馬県防災ヘリさんがダウンウインド

20211103_gunma_04ja10gr

愛称は「はるな」さん 9月8日に就航したばかり。

20211103_gunma_05ja10gr

RW30ランディング

20211103_gunma_06ja10gr

JA10GR AW139 群馬県消防防災

20211103_gunma_07ja10gr

防災航空隊格納庫まで、転がります。

20211103_gunma_08ja10gr

運航は、朝日航洋に代わっている。

20211103_gunma_09ja10gr

富山の東邦格納庫を見ていると、随分立派な建物です。

20211103_gunma_10ja10gr

20211103_gunma_11ja10gr

20211103_gunma_12ja10gr

群馬県徽章

20211103_gunma_13ja10gr

ホイストカバーにGAR

20211103_gunma_14ja10gr

格納前に燃料補給

20211103_gunma_15ja023n

す巻きは、中日本のJA023N

20211103_gunma_16ja10gr

ぐるっと、180して、格納へ

20211103_gunma_17ja9678

グランドランは続いていますが、飛ぶ気配はありません。

20211103_gunma_18gunmahp

20211103_gunma_19gunmahp

20211103_gunma_20gunmahp

南からの日当たり良好で、撮影はしやすい。

20211103_gunma_21ja117r

JA117R BK117-C2 AKF 群馬県ドクターヘリ

20211103_gunma_22ja9678

JA9678 AS332L1 AKF

20211103_gunma_23ja023n

JA023N AS350B3 NNK

20211103_gunma_24gunmahp

予約をしておいた、見学です。

20211103_gunma_25gunmahp

20年ぶりぐらいの訪問です。

20211103_gunma_26gunmahp

カウンターには、先代はるなさんの写真が飾られていました。

20211103_gunma_27gunmahp

慰霊碑の案内がされています。

20211103_gunma_28gunmahp

ヘリコプター学習館へ

20211103_gunma_29ja9092

元京都府警のジェットレンジャーが展示されています。

20211103_gunma_30ja9092

exJA9092

20211103_gunma_31ja9092

警察のジェットレンジャーは、いろんなところで教材で見ますね。

20211103_gunma_32ja9092

20211103_gunma_33ja9092

ふむな ふむな

20211103_gunma_34gunmahp

群馬県のヘリ3兄弟のパネル展示

20211103_gunma_35gunmahp

「はるな」さんは先代のパネルです。

20211103_gunma_36gunmahp

警察ヘリは「あかぎ」

20211103_gunma_37ja200g

防災航空隊20周年の記念品が展示されています。

20211103_gunma_38ja200g

20211103_gunma_39gunmahp

ぐんまちゃんも、頑張ろうね。

 

| | コメント (0)

2020/11/04

つくばヘリポート つくば市 2020/11/4 wed

東京では、「木枯らし一号」が吹いたそうである。日本海側は冬型で、新潟の山々には雪が積もっていた。雪肌に紅葉を眺めながら関東へ。

RJAH 040500Z 32012KT 290V350 9999 FEW040 17/M02 Q1013

20201104_tsukuba_00tsukubahp

普段近くを通っていながら、立ち寄っていなかったHに。

20201104_tsukuba_01tsukubahp

茨城県つくばヘリポート。

20201104_tsukuba_02tsukubahp

管理ビル内に、こなものが

20201104_tsukuba_03tsukubahp

早速「とやま」のページを

20201104_tsukuba_04tsukubahp

一角に防災航空隊のコーナー

RJAH 040600Z 31012KT 9999 FEW040 17/M02 Q1014

20201104_tsukuba_05n402dx

DAL167 KSEA-RJTT N402DX A330-941

傍らを羽田便が通過していきます。今旬のデルタ。

20201104_tsukuba_06ja298r

学園都市を走っている時に聞いた羽音が・・

20201104_tsukuba_07ja298r

帰ってこられました。

20201104_tsukuba_08ja298r

JA298R BK117C-2 茨城県防災航空隊「つくば」

20201104_tsukuba_09ja298r

RW35降り

20201104_tsukuba_10ja298r

20201104_tsukuba_11bousai

お疲れ様でした。

20201104_tsukuba_12ja110v

およよ、これはここにいたのか・・

20201104_tsukuba_13tsukubahp

周辺を散策

20201104_tsukuba_14ja298r

桜川の土手から

20201104_tsukuba_15ja05xj

JAL512 RJCC-RJTT JA05XJ A350-941

20201104_tsukuba_16tsukubahp

筑波山をバックに

20201104_tsukuba_17ja110v

JA110V R44 エンジン調整の模様です。

20201104_tsukuba_18tsukubahp

デカデカと防災航空隊とありますが、こちらはつくば航空の格納庫

20201104_tsukuba_19tsukubahp

北側が防災航空隊の格納庫

20201104_tsukuba_20ja298r

隊員さん総出で、手洗いでキレイキレイ

| | コメント (0)

その他のカテゴリー

BI Boading record aircraft Boading record ship FlightTracking lighthouse NAVAIDS NAVY RJNT LOG SKY MASSAGE US NAVY USMC うみ おか そら てつ アクシデント エアロック チーム室屋 ヘリポート 三沢飛行場 上五島空港 下地島空港 下総飛行場 与論空港 与那国空港 中標津空港 中部国際空港 久米島空港 五島福江空港 仙台空港 伊江島空港 但馬空港 佐賀空港 入間飛行場 八尾空港 八戸飛行場 出雲空港 函館空港 利尻空港 北九州空港 北大東空港 十勝飛行場 千歳飛行場 南大東空港 博物館 厚木飛行場 名古屋飛行場 喜界空港 嘉手納飛行場 場外 壱岐空港 多良間空港 大分空港 大村飛行場 大湊飛行場 大阪国際空港 大館能代空港 天草空港 奄美空港 奥尻空港 宇部山口空港 宇都宮飛行場 宮古空港 宮崎空港 富山空港 対馬空港 小松島飛行場 小松飛行場 屋久島空港 山形空港 岐阜飛行場 岡南飛行場 岡山空港 岩国飛行場 帯広空港 広島空港 広島西飛行場 庄内空港 徳之島空港 徳島飛行場 慶良間空港 成田国際空港 新島空港 新潟空港 新田原飛行場 旭川空港 旭川飛行場 明野飛行場 普天間飛行場 木更津飛行場 札幌飛行場 東京国際空港 松山空港 松島飛行場 松本空港 枕崎飛行場 横田飛行場 沖永良部空港 波照間空港 浜松飛行場 海上保安庁 海上自衛隊 海外 熊本空港 百里飛行場 相馬原飛行場 石垣空港 石見空港 礼文空港 神戸空港 神津島空港 福井空港 福岡空港 福島空港 秋田空港 稚内空港 種子島空港 空撮 立川飛行場 竜ヶ崎飛行場 築城飛行場 粟国空港 美保飛行場 能登空港 舞鶴飛行場 航空自衛隊 芦屋飛行場 花巻空港 調布飛行場 警務消防 那覇空港 釧路空港 長崎空港 関西国際空港 陸上自衛隊 隠岐空港 霞ヶ浦飛行場 霞目飛行場 青森空港 静岡空港 静浜飛行場 飛行場跡 飛行船 鹿児島空港 鹿屋飛行場